Time;durP1;ratioP1;P1;durP2;ratioP2;P2;SDS_P1;SDS_P2;PMS_P1;PMS_P2;Temp;Humidity;BMP_temperature;BMP_pressure;BME280_temperature;BME280_humidity;BME280_pressure;Samples;Min_cycle;Max_cycle;Signal;HPM_P1;HPM_P2
2021/06/23 00:01:08;;;;;;;12.73;7.43;;;12.60;99.90;;;;;;4382210;32;20173;-60
2021/06/23 00:03:35;;;;;;;17.23;7.83;;;12.50;99.90;;;;;;4383483;32;20539;-60
2021/06/23 00:06:02;;;;;;;15.43;7.67;;;12.40;99.90;;;;;;4376419;32;20145;-61
2021/06/23 00:08:29;;;;;;;12.60;7.23;;;12.50;99.90;;;;;;4377439;32;20164;-59
2021/06/23 00:10:59;;;;;;;16.83;7.60;;;12.50;99.90;;;;;;4385638;32;20149;-60
2021/06/23 00:13:32;;;;;;;14.80;7.83;;;12.50;99.90;;;;;;4382207;32;20202;-62
2021/06/23 00:16:01;;;;;;;15.83;8.37;;;12.50;99.90;;;;;;4375917;32;20156;-58
2021/06/23 00:18:28;;;;;;;11.97;7.20;;;12.50;99.90;;;;;;4387181;32;20513;-60
2021/06/23 00:20:55;;;;;;;16.00;7.33;;;12.50;99.90;;;;;;4385080;32;20202;-60
2021/06/23 00:23:22;;;;;;;9.60;6.83;;;12.50;99.90;;;;;;4388179;32;20148;-60
2021/06/23 00:25:51;;;;;;;12.70;7.93;;;12.50;99.90;;;;;;4379372;32;20149;-60
2021/06/23 00:28:18;;;;;;;9.43;6.70;;;12.50;99.90;;;;;;4378835;32;20177;-60
2021/06/23 00:30:45;;;;;;;13.40;7.67;;;12.50;99.90;;;;;;4393029;32;20527;-60
2021/06/23 00:33:18;;;;;;;11.03;6.90;;;12.60;99.90;;;;;;4382542;32;20168;-60
2021/06/23 00:35:46;;;;;;;14.57;6.40;;;12.60;99.90;;;;;;4377920;32;20502;-60
2021/06/23 00:38:16;;;;;;;10.93;6.67;;;12.60;99.90;;;;;;4384225;32;20218;-61
2021/06/23 00:40:44;;;;;;;17.57;7.40;;;12.60;99.90;;;;;;4382468;32;20187;-60
2021/06/23 00:43:14;;;;;;;15.90;7.13;;;12.70;99.90;;;;;;4380100;32;20141;-62
2021/06/23 00:45:42;;;;;;;14.50;7.53;;;12.80;99.90;;;;;;4383679;32;20195;-61
2021/06/23 00:48:27;;;;;;;11.87;7.13;;;12.80;99.90;;;;;;4388723;32;20178;-61
2021/06/23 00:50:54;;;;;;;9.40;6.97;;;12.80;99.90;;;;;;4389900;32;20149;-62
2021/06/23 00:53:21;;;;;;;10.67;6.83;;;12.80;99.90;;;;;;4375992;32;20156;-62
2021/06/23 00:55:54;;;;;;;14.17;7.80;;;12.90;99.90;;;;;;4377755;32;20163;-59
2021/06/23 00:58:21;;;;;;;11.03;7.13;;;12.80;99.90;;;;;;4385808;32;20174;-59
2021/06/23 01:00:50;;;;;;;9.30;7.33;;;12.80;99.90;;;;;;4378282;32;20169;-60
2021/06/23 01:03:19;;;;;;;14.77;7.93;;;12.70;99.90;;;;;;4389985;32;20155;-60
2021/06/23 01:05:46;;;;;;;14.93;7.43;;;12.80;99.90;;;;;;4381239;32;20153;-61
2021/06/23 01:08:13;;;;;;;17.63;7.37;;;12.70;99.90;;;;;;4377513;32;20535;-60
2021/06/23 01:10:40;;;;;;;15.43;7.57;;;12.70;99.90;;;;;;4375384;32;20191;-60
2021/06/23 01:13:33;;;;;;;15.00;7.73;;;12.70;99.90;;;;;;4387182;32;20191;-60
2021/06/23 01:16:02;;;;;;;11.03;7.50;;;12.80;99.90;;;;;;4388591;32;20152;-60
2021/06/23 01:18:33;;;;;;;12.83;7.33;;;12.80;99.90;;;;;;4380871;32;20157;-60
2021/06/23 01:21:00;;;;;;;9.60;6.43;;;12.80;99.90;;;;;;4383889;32;20175;-60
2021/06/23 01:23:29;;;;;;;16.23;7.93;;;12.80;99.90;;;;;;4385808;32;20155;-61
2021/06/23 01:25:56;;;;;;;14.00;8.00;;;12.80;99.90;;;;;;4389443;32;20666;-60
2021/06/23 01:28:24;;;;;;;12.73;7.73;;;12.70;99.90;;;;;;4382737;32;20179;-60
2021/06/23 01:30:51;;;;;;;14.40;7.63;;;12.80;99.90;;;;;;4381975;32;20153;-60
2021/06/23 01:33:18;;;;;;;12.10;7.40;;;12.80;99.90;;;;;;4378501;32;20219;-60
2021/06/23 01:35:48;;;;;;;15.80;7.83;;;12.70;99.90;;;;;;4375793;32;20585;-60
2021/06/23 01:38:15;;;;;;;11.80;7.40;;;12.70;99.90;;;;;;4385229;32;20553;-60
2021/06/23 01:40:44;;;;;;;11.73;7.20;;;12.60;99.90;;;;;;4375882;32;20167;-60
2021/06/23 01:43:12;;;;;;;17.70;7.80;;;12.60;99.90;;;;;;4381092;32;20166;-60
2021/06/23 01:45:39;;;;;;;15.90;7.20;;;12.50;99.90;;;;;;4376940;32;20284;-59
2021/06/23 01:48:07;;;;;;;13.80;7.50;;;12.40;99.90;;;;;;4379947;32;20226;-59
2021/06/23 01:50:34;;;;;;;14.10;7.87;;;12.40;99.90;;;;;;4382375;32;20222;-58
2021/06/23 01:53:03;;;;;;;12.97;7.63;;;12.50;99.90;;;;;;4375473;32;20170;-61
2021/06/23 01:55:30;;;;;;;12.53;7.10;;;12.40;99.90;;;;;;4379007;32;20188;-60
2021/06/23 01:58:02;;;;;;;16.03;8.10;;;12.40;99.90;;;;;;4378955;32;20157;-59
2021/06/23 02:00:54;;;;;;;15.03;8.20;;;12.40;99.90;;;;;;4384958;32;20573;-62
2021/06/23 02:03:58;;;;;;;15.67;7.70;;;12.30;99.90;;;;;;4386312;32;20191;-60
2021/06/23 02:06:46;;;;;;;11.27;7.63;;;12.20;99.90;;;;;;4390389;32;20156;-60
2021/06/23 02:09:25;;;;;;;21.90;8.27;;;12.20;99.90;;;;;;4391881;32;20232;-60
2021/06/23 02:12:03;;;;;;;19.33;9.27;;;12.30;99.90;;;;;;4387674;32;20577;-60
2021/06/23 02:14:38;;;;;;;21.53;9.23;;;12.40;99.90;;;;;;4388851;32;20151;-61
2021/06/23 02:17:09;;;;;;;13.87;7.77;;;12.40;99.90;;;;;;4380118;32;20194;-61
2021/06/23 02:19:42;;;;;;;13.23;8.57;;;12.40;99.90;;;;;;4378386;32;20174;-60
2021/06/23 02:22:14;;;;;;;11.00;8.10;;;12.40;99.90;;;;;;4387538;32;20563;-60
2021/06/23 02:24:41;;;;;;;14.20;8.67;;;12.40;99.90;;;;;;4383435;32;20460;-60
2021/06/23 02:27:09;;;;;;;14.50;9.40;;;12.50;99.90;;;;;;4389649;32;20588;-61
2021/06/23 02:29:39;;;;;;;15.37;8.10;;;12.50;99.90;;;;;;4387822;32;20152;-60
2021/06/23 02:32:11;;;;;;;15.27;9.40;;;12.50;99.90;;;;;;4386748;32;20171;-60
2021/06/23 02:34:39;;;;;;;21.10;9.60;;;12.50;99.90;;;;;;4387561;32;20503;-60
2021/06/23 02:37:09;;;;;;;11.60;8.13;;;12.50;99.90;;;;;;4392663;32;20508;-61
2021/06/23 02:39:37;;;;;;;13.10;8.40;;;12.50;99.90;;;;;;4386935;32;20167;-61
2021/06/23 02:42:05;;;;;;;22.80;9.70;;;12.50;99.90;;;;;;4386428;32;20191;-62
2021/06/23 02:44:32;;;;;;;16.73;9.30;;;12.50;99.90;;;;;;4390536;32;20166;-62
2021/06/23 02:47:01;;;;;;;14.80;8.73;;;12.50;99.90;;;;;;4381508;32;20174;-61
2021/06/23 02:49:28;;;;;;;12.03;9.53;;;12.50;99.90;;;;;;4386994;32;20195;-61
2021/06/23 02:51:59;;;;;;;13.77;8.83;;;12.50;99.90;;;;;;4385919;32;20152;-62
2021/06/23 02:54:26;;;;;;;14.87;9.43;;;12.50;99.90;;;;;;4376803;32;20152;-62
2021/06/23 02:56:53;;;;;;;13.90;9.23;;;12.50;99.90;;;;;;4377374;32;20236;-63
2021/06/23 02:59:21;;;;;;;14.37;9.87;;;12.50;99.90;;;;;;4381147;32;20488;-62
2021/06/23 03:01:51;;;;;;;17.97;9.43;;;12.40;99.90;;;;;;4385477;32;20628;-62
2021/06/23 03:04:19;;;;;;;13.70;8.70;;;12.40;99.90;;;;;;4391408;32;20151;-62
2021/06/23 03:06:48;;;;;;;13.57;8.37;;;12.30;99.90;;;;;;4383273;32;20570;-62
2021/06/23 03:09:16;;;;;;;19.07;9.13;;;12.20;99.90;;;;;;4380199;32;20163;-61
2021/06/23 03:11:43;;;;;;;14.93;8.43;;;12.20;99.90;;;;;;4384488;32;20152;-61
2021/06/23 03:14:10;;;;;;;11.67;8.37;;;12.20;99.90;;;;;;4376694;32;20180;-61
2021/06/23 03:16:38;;;;;;;13.43;8.93;;;12.20;99.90;;;;;;4378258;32;20194;-60
2021/06/23 03:19:05;;;;;;;13.50;8.50;;;12.20;99.90;;;;;;4383808;32;20148;-60
2021/06/23 03:21:36;;;;;;;14.67;8.13;;;12.30;99.90;;;;;;4379218;32;20148;-61
2021/06/23 03:24:05;;;;;;;11.43;8.20;;;12.30;99.90;;;;;;4391044;32;20239;-61
2021/06/23 03:26:32;;;;;;;11.07;8.20;;;12.30;99.90;;;;;;4390185;32;20160;-61
2021/06/23 03:29:10;;;;;;;14.03;7.97;;;12.30;99.90;;;;;;4389352;32;20218;-61
2021/06/23 03:31:44;;;;;;;12.37;8.00;;;12.30;99.90;;;;;;4385682;32;20148;-62
2021/06/23 03:34:10;;;;;;;13.20;8.10;;;12.30;99.90;;;;;;4386248;32;20572;-61
2021/06/23 03:36:39;;;;;;;10.23;8.20;;;12.30;99.90;;;;;;4382926;32;20149;-60
2021/06/23 03:39:06;;;;;;;17.20;8.97;;;12.20;99.90;;;;;;4389203;32;20152;-61
2021/06/23 03:41:33;;;;;;;12.40;8.43;;;12.30;99.90;;;;;;4379147;32;20191;-61
2021/06/23 03:43:59;;;;;;;14.93;7.43;;;12.30;99.90;;;;;;4379140;32;20614;-61
2021/06/23 03:46:26;;;;;;;11.83;7.60;;;12.30;99.90;;;;;;4375861;32;20148;-61
2021/06/23 03:48:56;;;;;;;11.33;7.93;;;12.30;99.90;;;;;;4380038;32;20161;-61
2021/06/23 03:51:23;;;;;;;11.67;7.77;;;12.30;99.90;;;;;;4376595;32;20175;-61
2021/06/23 03:53:52;;;;;;;14.20;8.47;;;12.40;99.90;;;;;;4375892;32;20167;-61
2021/06/23 03:56:19;;;;;;;12.30;8.70;;;12.40;99.90;;;;;;4386679;32;20156;-61
2021/06/23 03:58:46;;;;;;;9.40;7.40;;;12.50;99.90;;;;;;4385394;32;20156;-61
2021/06/23 04:01:16;;;;;;;11.37;7.40;;;12.60;99.90;;;;;;4385032;32;20148;-63
2021/06/23 04:03:43;;;;;;;9.17;7.23;;;12.60;99.90;;;;;;4383297;32;20487;-63
2021/06/23 04:06:10;;;;;;;9.47;7.93;;;12.70;99.90;;;;;;4387076;32;20170;-63
2021/06/23 04:08:37;;;;;;;12.53;7.70;;;12.70;99.90;;;;;;4386374;32;20607;-60
2021/06/23 04:11:05;;;;;;;12.83;8.13;;;12.80;99.90;;;;;;4379114;32;20144;-60
2021/06/23 04:13:32;;;;;;;9.17;7.13;;;12.80;99.90;;;;;;4382748;32;20170;-61
2021/06/23 04:15:59;;;;;;;12.50;7.50;;;12.90;99.90;;;;;;4377834;32;20149;-61
2021/06/23 04:18:27;;;;;;;17.17;8.13;;;12.90;99.90;;;;;;4385821;32;20156;-61
2021/06/23 04:21:08;;;;;;;8.47;6.57;;;12.90;99.90;;;;;;4389351;32;20270;-60
2021/06/23 04:23:35;;;;;;;14.97;7.70;;;13.00;99.90;;;;;;4382986;32;20471;-60
2021/06/23 04:26:02;;;;;;;12.93;7.53;;;13.00;99.90;;;;;;4378659;32;20152;-60
2021/06/23 04:28:30;;;;;;;18.10;8.37;;;13.10;99.90;;;;;;4380070;32;20210;-60
2021/06/23 04:31:00;;;;;;;12.33;7.80;;;13.10;99.90;;;;;;4381898;32;20153;-60
2021/06/23 04:33:26;;;;;;;12.27;7.40;;;13.10;99.90;;;;;;4383475;32;20231;-60
2021/06/23 04:35:56;;;;;;;12.23;7.90;;;13.20;99.90;;;;;;4382078;32;20187;-60
2021/06/23 04:38:23;;;;;;;11.20;7.57;;;13.10;99.90;;;;;;4382032;32;20159;-60
2021/06/23 04:40:50;;;;;;;14.47;9.03;;;13.30;99.90;;;;;;4377448;32;20177;-60
2021/06/23 04:43:17;;;;;;;13.83;8.47;;;13.20;99.90;;;;;;4379862;32;20232;-60
2021/06/23 04:45:46;;;;;;;14.33;8.83;;;13.00;99.90;;;;;;4383483;32;20234;-61
2021/06/23 04:48:13;;;;;;;11.97;8.33;;;13.10;99.90;;;;;;4389453;32;20155;-61
2021/06/23 04:50:43;;;;;;;12.50;8.37;;;13.30;99.90;;;;;;4389977;32;20216;-61
2021/06/23 04:53:10;;;;;;;13.33;9.00;;;13.40;99.90;;;;;;4385233;32;20167;-59
2021/06/23 04:55:37;;;;;;;12.27;8.27;;;13.50;99.90;;;;;;4391142;32;20163;-60
2021/06/23 04:58:05;;;;;;;12.73;7.47;;;13.60;99.90;;;;;;4379405;32;20175;-60
2021/06/23 05:00:31;;;;;;;10.57;7.27;;;13.60;99.90;;;;;;4379116;32;20192;-61
2021/06/23 05:03:00;;;;;;;11.43;7.80;;;13.70;99.90;;;;;;4384123;32;20168;-61
2021/06/23 05:05:27;;;;;;;10.60;7.00;;;13.80;99.90;;;;;;4387792;32;20208;-60
2021/06/23 05:07:54;;;;;;;11.50;8.43;;;13.80;99.90;;;;;;4381798;32;20160;-60
2021/06/23 05:10:21;;;;;;;13.27;7.70;;;13.80;99.90;;;;;;4382790;32;20272;-60
2021/06/23 05:12:48;;;;;;;14.17;8.73;;;13.60;99.90;;;;;;4382543;32;20152;-60
2021/06/23 05:15:15;;;;;;;13.73;8.30;;;13.40;99.90;;;;;;4384308;32;20509;-60
2021/06/23 05:17:42;;;;;;;16.00;9.13;;;13.20;99.90;;;;;;4377907;32;20255;-60
2021/06/23 05:20:12;;;;;;;10.30;8.63;;;13.20;99.90;;;;;;4383363;32;20188;-60
2021/06/23 05:22:41;;;;;;;13.57;8.70;;;13.30;99.90;;;;;;4381374;32;20223;-59
2021/06/23 05:25:14;;;;;;;11.53;9.67;;;13.40;99.90;;;;;;4375141;32;20167;-60
2021/06/23 05:27:45;;;;;;;14.27;8.53;;;13.70;99.90;;;;;;4385629;32;20170;-60
2021/06/23 05:30:18;;;;;;;12.77;7.47;;;13.60;99.90;;;;;;4381456;32;20196;-60
2021/06/23 05:32:50;;;;;;;11.87;7.53;;;13.80;99.90;;;;;;4377388;32;20194;-60
2021/06/23 05:35:21;;;;;;;12.37;8.37;;;14.00;99.90;;;;;;4380285;32;20545;-60
2021/06/23 05:37:48;;;;;;;16.33;7.77;;;14.00;99.90;;;;;;4372305;32;20158;-61
2021/06/23 05:40:17;;;;;;;11.70;6.70;;;13.90;99.90;;;;;;4384068;32;20165;-60
2021/06/23 05:42:44;;;;;;;10.37;7.57;;;14.10;99.90;;;;;;4385558;32;20160;-61
2021/06/23 05:45:12;;;;;;;12.97;7.07;;;14.30;99.90;;;;;;4388353;32;20153;-62
2021/06/23 05:47:39;;;;;;;12.47;8.33;;;14.30;99.90;;;;;;4384412;32;20229;-61
2021/06/23 05:50:09;;;;;;;13.57;7.33;;;14.50;99.90;;;;;;4384796;32;20171;-61
2021/06/23 05:52:38;;;;;;;9.83;6.57;;;14.40;99.90;;;;;;4381533;32;20595;-61
2021/06/23 05:55:06;;;;;;;11.00;6.77;;;14.50;99.90;;;;;;4384875;32;20164;-60
2021/06/23 05:57:33;;;;;;;13.70;7.47;;;14.80;99.90;;;;;;4380325;32;20179;-61
2021/06/23 06:00:00;;;;;;;18.13;7.43;;;14.80;99.90;;;;;;4381367;32;20222;-60
2021/06/23 06:02:35;;;;;;;10.97;6.67;;;14.70;99.90;;;;;;4390111;32;20135;-60
2021/06/23 06:05:06;;;;;;;15.27;7.20;;;14.70;99.90;;;;;;4390415;32;20158;-61
2021/06/23 06:07:37;;;;;;;11.50;6.53;;;14.80;99.90;;;;;;4389988;32;20147;-61
2021/06/23 06:10:05;;;;;;;9.73;6.23;;;14.90;99.90;;;;;;4391482;32;20156;-60
2021/06/23 06:12:31;;;;;;;11.30;5.93;;;14.70;99.90;;;;;;4390077;32;20140;-61
2021/06/23 06:14:58;;;;;;;10.23;5.50;;;15.00;99.90;;;;;;4387364;32;20226;-61
2021/06/23 06:17:39;;;;;;;17.97;6.20;;;14.80;99.90;;;;;;4388354;32;20583;-60
2021/06/23 06:20:10;;;;;;;10.40;5.63;;;15.10;99.90;;;;;;4388258;32;20178;-61
2021/06/23 06:22:39;;;;;;;16.73;5.93;;;15.40;99.90;;;;;;4386398;32;20178;-61
2021/06/23 06:25:06;;;;;;;9.63;5.03;;;15.70;99.90;;;;;;4391435;32;20164;-61
2021/06/23 06:27:34;;;;;;;10.70;5.47;;;15.90;99.90;;;;;;4388048;32;20186;-61
2021/06/23 06:30:02;;;;;;;9.83;4.90;;;16.40;99.90;;;;;;4392707;32;20677;-61
2021/06/23 06:32:28;;;;;;;12.33;4.43;;;16.50;99.90;;;;;;4385530;32;20159;-61
2021/06/23 06:34:55;;;;;;;10.83;4.40;;;16.90;99.90;;;;;;4392334;32;20214;-59
2021/06/23 06:37:24;;;;;;;7.37;4.30;;;17.20;99.90;;;;;;4383541;32;20500;-59
2021/06/23 06:39:58;;;;;;;13.73;4.70;;;17.30;99.90;;;;;;4393356;32;20209;-61
2021/06/23 06:42:25;;;;;;;11.43;4.20;;;17.10;99.90;;;;;;4391535;32;20179;-62
2021/06/23 06:44:52;;;;;;;7.70;4.10;;;17.40;99.90;;;;;;4392768;32;20152;-59
2021/06/23 06:47:19;;;;;;;8.47;3.90;;;17.80;99.90;;;;;;4390265;32;20236;-59
2021/06/23 06:52:30;;;;;;;11.10;4.77;;;18.20;99.90;;;;;;4389656;32;20215;-61
2021/06/23 06:54:59;;;;;;;7.63;3.27;;;18.20;99.90;;;;;;4390537;32;20152;-60
2021/06/23 06:57:26;;;;;;;7.73;3.40;;;18.40;99.90;;;;;;4384602;32;20198;-60
2021/06/23 06:59:56;;;;;;;11.50;4.30;;;18.60;99.90;;;;;;4390909;32;20160;-61
2021/06/23 07:02:25;;;;;;;5.67;3.50;;;18.00;99.60;;;;;;4380775;32;20164;-61
2021/06/23 07:04:52;;;;;;;6.30;3.30;;;18.10;99.90;;;;;;4387400;32;20160;-61
2021/06/23 07:07:19;;;;;;;12.13;3.50;;;18.20;99.50;;;;;;4381677;32;20145;-60
2021/06/23 07:09:46;;;;;;;7.23;3.27;;;18.20;99.90;;;;;;4388958;32;20196;-61
2021/06/23 07:12:14;;;;;;;15.57;4.30;;;18.20;99.90;;;;;;4389445;32;20256;-60
2021/06/23 07:14:41;;;;;;;9.57;4.10;;;18.20;99.90;;;;;;4388709;32;20550;-60
2021/06/23 07:17:08;;;;;;;11.57;4.07;;;18.20;99.90;;;;;;4390204;32;20465;-62
2021/06/23 07:19:38;;;;;;;11.33;3.83;;;18.30;99.90;;;;;;4391718;32;20531;-60
2021/06/23 07:22:05;;;;;;;16.20;3.97;;;18.40;99.90;;;;;;4392002;32;20152;-59
2021/06/23 07:24:32;;;;;;;5.30;3.10;;;18.30;99.90;;;;;;4382099;32;20439;-59
2021/06/23 07:26:59;;;;;;;7.83;2.63;;;18.40;99.90;;;;;;4384966;32;20148;-60
2021/06/23 07:29:33;;;;;;;11.17;2.83;;;18.30;98.30;;;;;;4382369;32;20171;-60
2021/06/23 07:32:05;;;;;;;5.40;2.10;;;18.40;98.50;;;;;;4389417;32;20175;-60
2021/06/23 07:37:24;;;;;;;10.80;2.90;;;18.80;97.90;;;;;;4382520;32;20191;-60
2021/06/23 07:39:53;;;;;;;8.13;2.27;;;19.20;98.30;;;;;;4387860;32;20598;-60
2021/06/23 07:42:23;;;;;;;8.00;2.40;;;19.70;98.00;;;;;;4390500;32;20148;-60
2021/06/23 07:44:57;;;;;;;4.33;1.73;;;20.50;96.70;;;;;;4389215;32;20198;-60
2021/06/23 07:47:42;;;;;;;8.90;1.97;;;20.70;93.80;;;;;;4389006;32;20183;-60
2021/06/23 07:50:10;;;;;;;5.23;1.70;;;21.10;92.00;;;;;;4390117;32;20169;-60
2021/06/23 07:53:07;;;;;;;8.90;2.17;;;21.60;90.50;;;;;;4388732;32;20156;-59
2021/06/23 07:55:47;;;;;;;8.83;2.43;;;22.10;91.60;;;;;;4389359;32;20503;-60
2021/06/23 08:01:58;;;;;;;8.17;2.37;;;22.80;88.60;;;;;;4388157;32;20201;-60
2021/06/23 08:09:56;;;;;;;7.07;1.73;;;26.20;74.40;;;;;;4388999;32;20197;-62
2021/06/23 08:12:38;;;;;;;5.80;2.03;;;30.20;68.40;;;;;;4387064;32;20592;-61
2021/06/23 08:15:06;;;;;;;6.63;1.93;;;31.90;58.60;;;;;;4386786;32;20143;-62
2021/06/23 08:17:51;;;;;;;6.10;1.92;;;30.40;56.40;;;;;;4380386;32;20607;-61
2021/06/23 08:20:34;;;;;;;5.30;1.70;;;29.30;57.80;;;;;;4384078;32;20202;-60
2021/06/23 08:23:02;;;;;;;7.60;1.42;;;28.80;56.10;;;;;;4389451;32;20184;-61
2021/06/23 08:25:32;;;;;;;12.02;2.00;;;30.70;55.20;;;;;;4386358;32;20156;-61
2021/06/23 08:28:05;;;;;;;7.18;1.80;;;31.20;54.80;;;;;;4388107;32;20152;-60
2021/06/23 08:30:33;;;;;;;5.82;1.80;;;33.60;52.10;;;;;;4381534;32;20153;-60
2021/06/23 08:33:07;;;;;;;3.85;1.42;;;35.90;48.60;;;;;;4390083;32;20156;-62
2021/06/23 08:35:38;;;;;;;4.32;1.48;;;38.60;43.10;;;;;;4389599;32;20152;-61
2021/06/23 08:38:05;;;;;;;5.75;1.80;;;35.80;41.40;;;;;;4383916;32;20164;-61
2021/06/23 08:40:33;;;;;;;4.70;1.50;;;31.60;43.90;;;;;;4388791;32;20156;-61
2021/06/23 08:43:04;;;;;;;4.45;1.33;;;29.10;47.20;;;;;;4378399;32;20176;-61
2021/06/23 08:45:35;;;;;;;5.22;1.75;;;27.50;49.70;;;;;;4381758;32;20170;-60
2021/06/23 08:48:08;;;;;;;6.37;1.83;;;26.00;51.90;;;;;;4384736;32;20600;-61
2021/06/23 08:53:57;;;;;;;8.57;2.20;;;23.50;59.60;;;;;;4388429;32;20239;-60
2021/06/23 08:56:24;;;;;;;6.33;2.13;;;22.50;62.60;;;;;;4390404;32;20313;-61
2021/06/23 08:58:51;;;;;;;7.30;1.80;;;22.30;63.40;;;;;;4385194;32;20584;-61
2021/06/23 09:01:18;;;;;;;6.87;2.40;;;23.00;65.10;;;;;;4386419;32;20148;-62
2021/06/23 09:04:04;;;;;;;11.93;2.83;;;23.80;63.70;;;;;;4385093;32;20169;-61
2021/06/23 09:06:49;;;;;;;6.50;1.73;;;23.00;66.40;;;;;;4388660;32;20170;-60
2021/06/23 09:09:17;;;;;;;6.97;2.60;;;22.90;66.20;;;;;;4387387;32;20178;-60
2021/06/23 09:11:48;;;;;;;8.47;2.30;;;22.30;65.40;;;;;;4379927;32;20152;-61
2021/06/23 09:14:17;;;;;;;5.03;2.00;;;20.80;69.20;;;;;;4388808;32;20149;-61
2021/06/23 09:17:18;;;;;;;7.03;2.57;;;20.30;72.90;;;;;;4389136;32;20199;-60
2021/06/23 09:19:49;;;;;;;8.13;2.60;;;20.50;74.10;;;;;;4331953;33;20194;-60
2021/06/23 09:22:45;;;;;;;7.63;3.47;;;19.90;77.20;;;;;;4335601;33;20641;-60
2021/06/23 09:25:26;;;;;;;6.50;1.80;;;20.40;79.50;;;;;;4338363;33;20205;-61
2021/06/23 09:27:55;;;;;;;8.50;2.57;;;22.70;72.60;;;;;;4335481;33;20168;-63
2021/06/23 09:30:25;;;;;;;6.47;1.90;;;22.40;70.10;;;;;;4336203;33;20201;-58
2021/06/23 09:33:14;;;;;;;9.53;2.20;;;21.20;75.60;;;;;;4336943;33;20161;-60
2021/06/23 09:35:44;;;;;;;4.77;2.40;;;21.20;74.60;;;;;;4338857;33;20667;-58
2021/06/23 09:38:33;;;;;;;9.97;2.63;;;21.10;75.10;;;;;;4338645;33;20216;-61
2021/06/23 09:41:05;;;;;;;6.97;2.10;;;20.70;76.50;;;;;;4337283;33;20199;-59
2021/06/23 09:43:39;;;;;;;7.33;2.13;;;20.60;80.20;;;;;;4337190;33;20228;-61
2021/06/23 09:46:17;;;;;;;11.67;2.40;;;19.30;78.90;;;;;;4334482;33;20154;-60
2021/06/23 09:48:48;;;;;;;6.93;2.30;;;19.00;84.70;;;;;;4342077;33;20191;-59
2021/06/23 09:51:22;;;;;;;6.03;2.47;;;19.30;83.80;;;;;;4370477;32;20161;-61
2021/06/23 09:53:51;;;;;;;7.87;2.50;;;19.00;83.20;;;;;;4381823;32;20247;-60
2021/06/23 09:56:29;;;;;;;10.70;2.70;;;19.20;85.20;;;;;;4387705;32;20470;-61
2021/06/23 09:58:57;;;;;;;7.03;2.37;;;19.50;83.70;;;;;;4378134;32;20507;-61
2021/06/23 10:01:25;;;;;;;4.97;1.90;;;19.90;85.90;;;;;;4383362;32;20225;-60
2021/06/23 10:03:57;;;;;;;5.77;2.30;;;20.20;84.90;;;;;;4389675;32;20187;-60
2021/06/23 10:06:30;;;;;;;11.73;2.93;;;20.10;80.70;;;;;;4390850;32;20160;-59
2021/06/23 10:09:21;;;;;;;7.03;2.20;;;19.40;83.50;;;;;;4388528;32;20156;-60
2021/06/23 10:11:50;;;;;;;6.77;2.30;;;19.70;86.30;;;;;;4386217;32;20235;-58
2021/06/23 10:14:17;;;;;;;9.00;2.60;;;20.40;82.80;;;;;;4388177;32;20584;-61
2021/06/23 10:16:46;;;;;;;10.53;2.73;;;21.00;82.40;;;;;;4387695;32;20236;-60
2021/06/23 10:19:13;;;;;;;4.80;2.33;;;21.20;82.00;;;;;;4392062;32;20179;-60
2021/06/23 10:21:41;;;;;;;10.83;2.73;;;20.90;77.80;;;;;;4389226;32;20167;-59
2021/06/23 10:24:10;;;;;;;12.13;3.00;;;21.10;81.30;;;;;;4380876;32;20149;-60
2021/06/23 10:26:44;;;;;;;7.27;2.77;;;20.10;80.80;;;;;;4380744;32;20239;-59
2021/06/23 10:29:14;;;;;;;8.13;2.77;;;19.40;85.80;;;;;;4384324;32;20147;-59
2021/06/23 10:31:41;;;;;;;8.40;2.70;;;19.30;85.70;;;;;;4391083;32;20186;-59
2021/06/23 10:34:09;;;;;;;8.80;2.50;;;20.30;86.10;;;;;;4379816;32;20178;-59
2021/06/23 10:36:36;;;;;;;9.33;2.43;;;20.70;84.30;;;;;;4392197;32;20488;-60
2021/06/23 10:39:06;;;;;;;6.47;2.67;;;19.90;84.00;;;;;;4391391;32;20178;-59
2021/06/23 10:41:38;;;;;;;9.37;3.43;;;19.60;86.40;;;;;;4391473;32;20144;-60
2021/06/23 10:44:19;;;;;;;7.60;2.50;;;19.90;85.70;;;;;;4391423;32;20176;-59
2021/06/23 10:46:49;;;;;;;9.37;2.70;;;20.60;84.30;;;;;;4392874;32;20583;-59
2021/06/23 10:49:19;;;;;;;6.10;2.40;;;21.00;83.10;;;;;;4391860;32;20151;-59
2021/06/23 10:51:48;;;;;;;6.17;2.30;;;21.10;81.20;;;;;;4391598;32;20160;-60
2021/06/23 10:54:39;;;;;;;7.47;2.57;;;21.60;80.20;;;;;;4383805;32;20591;-59
2021/06/23 10:57:25;;;;;;;4.27;2.37;;;22.60;77.60;;;;;;4389528;32;20173;-58
2021/06/23 10:59:53;;;;;;;5.13;2.37;;;22.90;76.40;;;;;;4388664;32;20273;-62
2021/06/23 11:02:29;;;;;;;7.73;2.20;;;23.20;74.30;;;;;;4384531;32;20144;-61
2021/06/23 11:05:17;;;;;;;7.20;2.33;;;23.30;74.20;;;;;;4387487;32;20156;-62
2021/06/23 11:07:46;;;;;;;4.30;2.43;;;23.40;72.50;;;;;;4383124;32;20194;-60
2021/06/23 11:10:30;;;;;;;7.00;2.53;;;23.20;72.80;;;;;;4390268;32;20194;-61
2021/06/23 11:12:59;;;;;;;6.97;2.67;;;22.70;74.00;;;;;;4390878;32;20222;-59
2021/06/23 11:15:35;;;;;;;7.63;2.40;;;21.90;74.70;;;;;;4389855;32;20157;-61
2021/06/23 11:18:30;;;;;;;5.43;2.67;;;21.70;77.80;;;;;;4387836;32;20595;-60
2021/06/23 11:21:03;;;;;;;4.93;2.17;;;22.30;75.50;;;;;;4385895;32;20217;-61
2021/06/23 11:23:52;;;;;;;13.30;2.87;;;22.40;74.40;;;;;;4390986;32;20221;-60
2021/06/23 11:26:56;;;;;;;5.90;2.47;;;22.30;73.60;;;;;;4381488;32;20195;-60
2021/06/23 11:29:31;;;;;;;9.33;2.77;;;22.00;76.50;;;;;;4384250;32;20198;-59
2021/06/23 11:32:05;;;;;;;4.10;2.10;;;21.00;80.20;;;;;;4383757;32;20160;-60
2021/06/23 11:34:59;;;;;;;7.67;2.73;;;21.50;80.80;;;;;;4332457;32;1872686;-61
2021/06/23 11:37:33;;;;;;;6.10;2.27;;;20.90;79.40;;;;;;4386979;32;20160;-60
2021/06/23 11:40:20;;;;;;;6.80;2.27;;;20.90;80.80;;;;;;4380783;32;20622;-60
2021/06/23 11:42:49;;;;;;;9.80;3.73;;;21.70;79.90;;;;;;4383172;32;20164;-61
2021/06/23 11:45:18;;;;;;;9.73;2.47;;;21.60;78.40;;;;;;4386398;32;20168;-61
2021/06/23 11:47:45;;;;;;;7.07;2.80;;;21.80;78.00;;;;;;4377833;32;20156;-61
2021/06/23 11:50:13;;;;;;;4.43;2.43;;;21.30;79.00;;;;;;4389826;32;20247;-60
2021/06/23 11:52:40;;;;;;;7.20;3.00;;;21.60;80.20;;;;;;4380918;32;20164;-60
2021/06/23 11:55:10;;;;;;;6.87;3.27;;;21.70;79.00;;;;;;4384513;32;20168;-61
2021/06/23 11:57:37;;;;;;;8.77;3.50;;;22.00;79.60;;;;;;4390331;32;20170;-61
2021/06/23 12:00:08;;;;;;;8.57;3.20;;;22.10;80.10;;;;;;4382251;32;20183;-60
2021/06/23 12:02:35;;;;;;;7.13;3.13;;;22.20;78.90;;;;;;4378116;32;20164;-59
2021/06/23 12:05:04;;;;;;;7.20;2.83;;;22.10;79.40;;;;;;4380618;32;20163;-59
2021/06/23 12:07:31;;;;;;;8.97;3.10;;;22.00;80.50;;;;;;4378215;32;20180;-61
2021/06/23 12:10:00;;;;;;;7.67;3.20;;;22.50;79.90;;;;;;4383494;32;20218;-62
2021/06/23 12:12:29;;;;;;;6.60;3.77;;;21.10;79.90;;;;;;4376066;32;20669;-60
2021/06/23 12:14:56;;;;;;;5.67;2.90;;;21.50;81.20;;;;;;4379853;32;20208;-61
2021/06/23 12:17:24;;;;;;;7.43;3.10;;;21.90;80.50;;;;;;4380481;32;20214;-61
2021/06/23 12:19:53;;;;;;;4.60;2.93;;;21.80;81.20;;;;;;4376841;32;20202;-60
2021/06/23 12:22:20;;;;;;;7.13;2.87;;;22.50;77.80;;;;;;4381992;32;20209;-61
2021/06/23 12:24:47;;;;;;;7.30;3.03;;;22.80;77.70;;;;;;4383303;32;20186;-61
2021/06/23 12:27:14;;;;;;;7.73;3.00;;;21.00;79.10;;;;;;4382233;32;20210;-60
2021/06/23 12:29:41;;;;;;;6.13;2.83;;;21.20;81.60;;;;;;4379254;32;20153;-59
2021/06/23 12:32:08;;;;;;;7.10;3.27;;;21.10;81.70;;;;;;4379747;32;20168;-61
2021/06/23 12:34:37;;;;;;;8.93;3.43;;;20.90;79.70;;;;;;4381499;32;20611;-60
2021/06/23 12:37:05;;;;;;;7.10;3.37;;;19.90;83.90;;;;;;4381590;32;20176;-59
2021/06/23 12:39:32;;;;;;;8.30;3.13;;;20.20;83.90;;;;;;4379577;32;20153;-60
2021/06/23 12:41:59;;;;;;;10.80;3.00;;;20.70;83.00;;;;;;4380606;32;20206;-59
2021/06/23 12:44:26;;;;;;;4.67;2.63;;;21.00;80.40;;;;;;4377958;32;20203;-60
2021/06/23 12:46:53;;;;;;;14.43;3.33;;;21.10;81.40;;;;;;4379509;32;20187;-61
2021/06/23 12:49:20;;;;;;;12.63;3.37;;;21.00;81.40;;;;;;4381846;32;20666;-60
2021/06/23 12:51:51;;;;;;;9.23;3.70;;;21.10;81.50;;;;;;4377522;32;20231;-59
2021/06/23 12:54:18;;;;;;;7.93;3.47;;;21.00;80.00;;;;;;4383154;32;20160;-59
2021/06/23 12:56:50;;;;;;;9.63;3.70;;;21.20;81.20;;;;;;4379290;32;20167;-60
2021/06/23 12:59:21;;;;;;;9.13;3.10;;;21.50;81.60;;;;;;4378150;32;20207;-60
2021/06/23 13:01:48;;;;;;;6.93;3.07;;;21.70;80.50;;;;;;4385627;32;20148;-60
2021/06/23 13:04:15;;;;;;;9.93;3.47;;;21.20;79.10;;;;;;4379676;32;20263;-60
2021/06/23 13:06:42;;;;;;;8.90;3.47;;;21.10;79.90;;;;;;4385749;32;20175;-61
2021/06/23 13:09:10;;;;;;;7.67;3.30;;;21.10;82.10;;;;;;4379422;32;20487;-60
2021/06/23 13:11:39;;;;;;;5.47;3.00;;;21.60;81.10;;;;;;4387494;32;20625;-59
2021/06/23 13:14:06;;;;;;;8.63;3.37;;;21.70;79.50;;;;;;4375654;32;20156;-61
2021/06/23 13:16:32;;;;;;;7.63;3.77;;;21.70;80.90;;;;;;4380653;32;20222;-63